Archival Weather

Granbury Rgnl

Granbury, Texas (KGDJ)

Report from: Monday, January 29, 2024 7:55 PM UTC
Current time: Tuesday, June 18, 2024 1:20 PM UTC

Current weather – Weather history – Daily summaries
Weather forecast

Temperature21.5°C (70.7°F)
Dew point3.7°C (38.7°F)
Winds 9 kts (4.6 m/s, 10.4 mph) West (270°)
Visibility10 mi. (16.1 km)
Clouds Sky clear
Altimeter30.25 in.Hg (1024 mB)
Relative humidity31 %
Density altitude506 ft. (154 m)
Remarks Fully automated report
Automated weather observing station with precipitation discriminator
Flight conditions Visual Meteorological Conditions
Raw dataKGDJ 291955Z AUTO 27009KT 10SM CLR 22/04 A3025 RMK AO2 T02150037
An error has occurred. This application may no longer respond until reloaded. Reload 🗙